Carnarvon, Australia
Current Conditions -  °F | °C
As of 7:00 PM on Sunday 23 Nov 2014 (Local Time) from YCAR Reporting Station
Clear Clear  
Wind Chill: 72°   Ceiling: Unl
Heat Index: 72°   Visibility: 6mi
Dew Point: 63°   Wind: 22mph
Humidity: 73%   Direction: 200°SSW
Pressure: 29.91"   Gusts: NA
Location:  24.88°S, 113.66°E
Report Text: YCAR 231100Z AUTO 20019KT 9999 // NCD 22/17 Q1013
Loading
Personal Weather Stations






























Interactive Weather Map New forecast layout! Learn more

10-Day Weather Forecast

Advertisements
Track Severe Weather on mobile